sensor_id;sensor_type;location;lat;lon;timestamp;temperature;humidity
12477;DHT22;6303;51.504;6.300;2023-08-17T00:00:24;28.80;69.90
12477;DHT22;6303;51.504;6.300;2023-08-17T00:02:52;28.80;70.00
12477;DHT22;6303;51.504;6.300;2023-08-17T00:05:19;28.80;70.30
12477;DHT22;6303;51.504;6.300;2023-08-17T00:07:47;28.80;70.00
12477;DHT22;6303;51.504;6.300;2023-08-17T00:10:14;28.80;69.90
12477;DHT22;6303;51.504;6.300;2023-08-17T00:12:41;28.80;69.80
12477;DHT22;6303;51.504;6.300;2023-08-17T00:15:09;28.70;69.80
12477;DHT22;6303;51.504;6.300;2023-08-17T00:17:36;28.70;69.90
12477;DHT22;6303;51.504;6.300;2023-08-17T00:20:06;28.70;70.20
12477;DHT22;6303;51.504;6.300;2023-08-17T00:22:35;28.70;70.30
12477;DHT22;6303;51.504;6.300;2023-08-17T00:25:03;28.70;70.50
12477;DHT22;6303;51.504;6.300;2023-08-17T00:27:31;28.70;70.70
12477;DHT22;6303;51.504;6.300;2023-08-17T00:29:59;28.60;70.70
12477;DHT22;6303;51.504;6.300;2023-08-17T00:32:26;28.60;70.70
12477;DHT22;6303;51.504;6.300;2023-08-17T00:34:53;28.60;70.90
12477;DHT22;6303;51.504;6.300;2023-08-17T00:37:21;28.60;71.00
12477;DHT22;6303;51.504;6.300;2023-08-17T00:39:48;28.60;71.20
12477;DHT22;6303;51.504;6.300;2023-08-17T00:42:15;28.60;71.20
12477;DHT22;6303;51.504;6.300;2023-08-17T00:44:42;28.60;71.20
12477;DHT22;6303;51.504;6.300;2023-08-17T00:47:10;28.60;71.30
12477;DHT22;6303;51.504;6.300;2023-08-17T00:49:37;28.50;71.40
12477;DHT22;6303;51.504;6.300;2023-08-17T00:52:04;28.50;71.40
12477;DHT22;6303;51.504;6.300;2023-08-17T00:54:33;28.10;71.10
12477;DHT22;6303;51.504;6.300;2023-08-17T00:57:00;28.50;71.50
12477;DHT22;6303;51.504;6.300;2023-08-17T00:59:29;28.50;71.40
12477;DHT22;6303;51.504;6.300;2023-08-17T01:01:56;28.50;71.40
12477;DHT22;6303;51.504;6.300;2023-08-17T01:04:24;28.50;71.40
12477;DHT22;6303;51.504;6.300;2023-08-17T01:06:51;28.50;71.40
12477;DHT22;6303;51.504;6.300;2023-08-17T01:09:18;28.40;71.70
12477;DHT22;6303;51.504;6.300;2023-08-17T01:11:49;28.40;71.70
12477;DHT22;6303;51.504;6.300;2023-08-17T01:14:24;28.40;71.80
12477;DHT22;6303;51.504;6.300;2023-08-17T01:16:58;28.40;71.80
12477;DHT22;6303;51.504;6.300;2023-08-17T01:19:28;28.40;71.90
12477;DHT22;6303;51.504;6.300;2023-08-17T01:22:00;28.40;71.80
12477;DHT22;6303;51.504;6.300;2023-08-17T01:24:31;28.40;71.90
12477;DHT22;6303;51.504;6.300;2023-08-17T01:26:58;28.40;71.90
12477;DHT22;6303;51.504;6.300;2023-08-17T01:29:25;28.40;72.00
12477;DHT22;6303;51.504;6.300;2023-08-17T01:31:56;28.40;72.10
12477;DHT22;6303;51.504;6.300;2023-08-17T01:34:26;28.40;72.20
12477;DHT22;6303;51.504;6.300;2023-08-17T01:36:58;28.30;72.20
12477;DHT22;6303;51.504;6.300;2023-08-17T01:39:31;28.30;72.20
12477;DHT22;6303;51.504;6.300;2023-08-17T01:42:02;28.30;72.20
12477;DHT22;6303;51.504;6.300;2023-08-17T01:44:30;28.30;72.20
12477;DHT22;6303;51.504;6.300;2023-08-17T01:46:57;28.30;72.20
12477;DHT22;6303;51.504;6.300;2023-08-17T01:49:24;28.30;72.30
12477;DHT22;6303;51.504;6.300;2023-08-17T01:51:52;28.30;72.20
12477;DHT22;6303;51.504;6.300;2023-08-17T01:54:19;28.30;72.20
12477;DHT22;6303;51.504;6.300;2023-08-17T01:56:46;28.30;72.30
12477;DHT22;6303;51.504;6.300;2023-08-17T01:59:15;28.30;72.40
12477;DHT22;6303;51.504;6.300;2023-08-17T02:01:42;28.30;72.40
12477;DHT22;6303;51.504;6.300;2023-08-17T02:04:09;28.30;72.50
12477;DHT22;6303;51.504;6.300;2023-08-17T02:06:38;28.30;72.50
12477;DHT22;6303;51.504;6.300;2023-08-17T02:09:06;28.30;72.50
12477;DHT22;6303;51.504;6.300;2023-08-17T02:11:33;28.30;72.50
12477;DHT22;6303;51.504;6.300;2023-08-17T02:14:00;28.30;72.50
12477;DHT22;6303;51.504;6.300;2023-08-17T02:16:28;28.30;72.50
12477;DHT22;6303;51.504;6.300;2023-08-17T02:18:55;28.20;72.40
12477;DHT22;6303;51.504;6.300;2023-08-17T02:21:24;28.30;72.40
12477;DHT22;6303;51.504;6.300;2023-08-17T02:23:51;28.20;72.40
12477;DHT22;6303;51.504;6.300;2023-08-17T02:26:21;28.30;72.50
12477;DHT22;6303;51.504;6.300;2023-08-17T02:28:48;28.30;72.50
12477;DHT22;6303;51.504;6.300;2023-08-17T02:31:15;28.20;72.50
12477;DHT22;6303;51.504;6.300;2023-08-17T02:33:44;28.20;72.50
12477;DHT22;6303;51.504;6.300;2023-08-17T02:36:11;28.20;72.50
12477;DHT22;6303;51.504;6.300;2023-08-17T02:38:38;28.20;72.50
12477;DHT22;6303;51.504;6.300;2023-08-17T02:41:05;29.00;73.00
12477;DHT22;6303;51.504;6.300;2023-08-17T02:43:32;28.20;72.40
12477;DHT22;6303;51.504;6.300;2023-08-17T02:45:59;28.30;72.40
12477;DHT22;6303;51.504;6.300;2023-08-17T02:48:26;28.30;72.40
12477;DHT22;6303;51.504;6.300;2023-08-17T02:50:54;28.20;72.20
12477;DHT22;6303;51.504;6.300;2023-08-17T02:53:22;28.20;72.20
12477;DHT22;6303;51.504;6.300;2023-08-17T02:55:49;28.30;72.30
12477;DHT22;6303;51.504;6.300;2023-08-17T02:58:16;28.20;72.20
12477;DHT22;6303;51.504;6.300;2023-08-17T03:00:43;28.20;72.20
12477;DHT22;6303;51.504;6.300;2023-08-17T03:03:10;28.20;72.30
12477;DHT22;6303;51.504;6.300;2023-08-17T03:05:38;28.20;72.20
12477;DHT22;6303;51.504;6.300;2023-08-17T03:08:06;28.20;72.30
12477;DHT22;6303;51.504;6.300;2023-08-17T03:10:34;28.20;72.40
12477;DHT22;6303;51.504;6.300;2023-08-17T03:13:01;28.20;72.30
12477;DHT22;6303;51.504;6.300;2023-08-17T03:15:28;28.20;72.30
12477;DHT22;6303;51.504;6.300;2023-08-17T03:17:55;28.20;72.20
12477;DHT22;6303;51.504;6.300;2023-08-17T03:20:22;28.20;72.30
12477;DHT22;6303;51.504;6.300;2023-08-17T03:22:50;28.20;72.40
12477;DHT22;6303;51.504;6.300;2023-08-17T03:25:18;28.20;72.40
12477;DHT22;6303;51.504;6.300;2023-08-17T03:27:46;28.20;72.40
12477;DHT22;6303;51.504;6.300;2023-08-17T03:30:14;28.20;72.30
12477;DHT22;6303;51.504;6.300;2023-08-17T03:32:42;28.20;72.30
12477;DHT22;6303;51.504;6.300;2023-08-17T03:35:09;28.20;72.40
12477;DHT22;6303;51.504;6.300;2023-08-17T03:37:36;28.20;72.40
12477;DHT22;6303;51.504;6.300;2023-08-17T03:40:05;28.20;72.40
12477;DHT22;6303;51.504;6.300;2023-08-17T03:42:34;28.20;72.50
12477;DHT22;6303;51.504;6.300;2023-08-17T03:45:02;28.20;72.40
12477;DHT22;6303;51.504;6.300;2023-08-17T03:47:29;28.20;72.30
12477;DHT22;6303;51.504;6.300;2023-08-17T03:49:56;28.20;72.20
12477;DHT22;6303;51.504;6.300;2023-08-17T03:52:23;28.20;72.20
12477;DHT22;6303;51.504;6.300;2023-08-17T03:54:51;28.20;72.30
12477;DHT22;6303;51.504;6.300;2023-08-17T03:57:18;27.90;72.10
12477;DHT22;6303;51.504;6.300;2023-08-17T03:59:46;28.10;72.10
12477;DHT22;6303;51.504;6.300;2023-08-17T04:02:13;28.20;72.10
12477;DHT22;6303;51.504;6.300;2023-08-17T04:04:40;28.10;72.40
12477;DHT22;6303;51.504;6.300;2023-08-17T04:07:07;28.10;71.90
12477;DHT22;6303;51.504;6.300;2023-08-17T04:09:35;28.10;71.40
12477;DHT22;6303;51.504;6.300;2023-08-17T04:12:02;28.10;71.10
12477;DHT22;6303;51.504;6.300;2023-08-17T04:14:33;28.10;70.80
12477;DHT22;6303;51.504;6.300;2023-08-17T04:17:01;28.10;70.30
12477;DHT22;6303;51.504;6.300;2023-08-17T04:19:29;28.10;69.90
12477;DHT22;6303;51.504;6.300;2023-08-17T04:21:56;28.10;69.50
12477;DHT22;6303;51.504;6.300;2023-08-17T04:24:24;28.00;69.00
12477;DHT22;6303;51.504;6.300;2023-08-17T04:26:52;28.00;68.70
12477;DHT22;6303;51.504;6.300;2023-08-17T04:29:19;28.00;68.30
12477;DHT22;6303;51.504;6.300;2023-08-17T04:31:46;28.00;68.20
12477;DHT22;6303;51.504;6.300;2023-08-17T04:34:14;28.00;68.20
12477;DHT22;6303;51.504;6.300;2023-08-17T04:36:42;28.00;67.90
12477;DHT22;6303;51.504;6.300;2023-08-17T04:39:09;28.00;67.80
12477;DHT22;6303;51.504;6.300;2023-08-17T04:41:36;28.00;67.60
12477;DHT22;6303;51.504;6.300;2023-08-17T04:44:06;28.00;67.50
12477;DHT22;6303;51.504;6.300;2023-08-17T04:46:33;27.90;67.20
12477;DHT22;6303;51.504;6.300;2023-08-17T04:49:00;27.90;67.30
12477;DHT22;6303;51.504;6.300;2023-08-17T04:51:29;27.90;67.10
12477;DHT22;6303;51.504;6.300;2023-08-17T04:53:56;27.90;66.90
12477;DHT22;6303;51.504;6.300;2023-08-17T04:56:24;27.90;66.70
12477;DHT22;6303;51.504;6.300;2023-08-17T04:58:52;27.90;66.50
12477;DHT22;6303;51.504;6.300;2023-08-17T05:01:20;27.90;66.30
12477;DHT22;6303;51.504;6.300;2023-08-17T05:03:47;27.90;66.40
12477;DHT22;6303;51.504;6.300;2023-08-17T05:06:14;27.90;66.50
12477;DHT22;6303;51.504;6.300;2023-08-17T05:08:43;28.00;66.40
12477;DHT22;6303;51.504;6.300;2023-08-17T05:11:11;27.90;66.40
12477;DHT22;6303;51.504;6.300;2023-08-17T05:13:38;28.00;66.40
12477;DHT22;6303;51.504;6.300;2023-08-17T05:16:05;28.00;66.20
12477;DHT22;6303;51.504;6.300;2023-08-17T05:18:35;28.00;65.90
12477;DHT22;6303;51.504;6.300;2023-08-17T05:21:02;28.00;65.80
12477;DHT22;6303;51.504;6.300;2023-08-17T05:23:31;28.00;65.80
12477;DHT22;6303;51.504;6.300;2023-08-17T05:25:59;28.00;66.00
12477;DHT22;6303;51.504;6.300;2023-08-17T05:28:26;28.00;66.10
12477;DHT22;6303;51.504;6.300;2023-08-17T05:30:54;28.00;66.40
12477;DHT22;6303;51.504;6.300;2023-08-17T05:33:22;28.00;66.70
12477;DHT22;6303;51.504;6.300;2023-08-17T05:35:53;28.00;66.90
12477;DHT22;6303;51.504;6.300;2023-08-17T05:38:20;28.00;67.00
12477;DHT22;6303;51.504;6.300;2023-08-17T05:40:47;28.00;67.10
12477;DHT22;6303;51.504;6.300;2023-08-17T05:43:16;28.00;66.90
12477;DHT22;6303;51.504;6.300;2023-08-17T05:45:44;28.60;67.30
12477;DHT22;6303;51.504;6.300;2023-08-17T05:48:11;28.00;66.70
12477;DHT22;6303;51.504;6.300;2023-08-17T05:50:41;28.00;66.60
12477;DHT22;6303;51.504;6.300;2023-08-17T05:53:08;28.00;66.40
12477;DHT22;6303;51.504;6.300;2023-08-17T05:55:35;28.00;66.20
12477;DHT22;6303;51.504;6.300;2023-08-17T05:58:02;28.10;66.30
12477;DHT22;6303;51.504;6.300;2023-08-17T06:00:31;28.00;66.10
12477;DHT22;6303;51.504;6.300;2023-08-17T06:02:58;28.00;66.00
12477;DHT22;6303;51.504;6.300;2023-08-17T06:05:27;28.00;65.90
12477;DHT22;6303;51.504;6.300;2023-08-17T06:07:54;28.00;65.80
12477;DHT22;6303;51.504;6.300;2023-08-17T06:10:21;28.00;65.70
12477;DHT22;6303;51.504;6.300;2023-08-17T06:12:51;28.00;65.50
12477;DHT22;6303;51.504;6.300;2023-08-17T06:15:18;28.10;65.60
12477;DHT22;6303;51.504;6.300;2023-08-17T06:17:46;28.10;65.40
12477;DHT22;6303;51.504;6.300;2023-08-17T06:20:16;28.10;65.40
12477;DHT22;6303;51.504;6.300;2023-08-17T06:22:43;28.10;65.40
12477;DHT22;6303;51.504;6.300;2023-08-17T06:25:11;28.10;65.20
12477;DHT22;6303;51.504;6.300;2023-08-17T06:27:38;28.10;65.00
12477;DHT22;6303;51.504;6.300;2023-08-17T06:30:06;28.20;64.90
12477;DHT22;6303;51.504;6.300;2023-08-17T06:32:33;28.10;64.60
12477;DHT22;6303;51.504;6.300;2023-08-17T06:35:02;28.20;64.60
12477;DHT22;6303;51.504;6.300;2023-08-17T06:37:29;28.20;64.70
12477;DHT22;6303;51.504;6.300;2023-08-17T06:39:56;28.20;64.50
12477;DHT22;6303;51.504;6.300;2023-08-17T06:42:23;28.20;64.40
12477;DHT22;6303;51.504;6.300;2023-08-17T06:44:50;28.20;64.30
12477;DHT22;6303;51.504;6.300;2023-08-17T06:47:17;28.20;64.30
12477;DHT22;6303;51.504;6.300;2023-08-17T06:49:44;28.20;64.30
12477;DHT22;6303;51.504;6.300;2023-08-17T06:52:12;28.20;64.30
12477;DHT22;6303;51.504;6.300;2023-08-17T06:54:39;28.20;64.20
12477;DHT22;6303;51.504;6.300;2023-08-17T06:57:06;28.20;63.90
12477;DHT22;6303;51.504;6.300;2023-08-17T06:59:34;28.20;63.90
12477;DHT22;6303;51.504;6.300;2023-08-17T07:02:01;28.30;63.90
12477;DHT22;6303;51.504;6.300;2023-08-17T07:04:28;28.30;63.80
12477;DHT22;6303;51.504;6.300;2023-08-17T07:06:55;28.30;63.80
12477;DHT22;6303;51.504;6.300;2023-08-17T07:09:23;28.30;63.70
12477;DHT22;6303;51.504;6.300;2023-08-17T07:11:50;28.30;63.60
12477;DHT22;6303;51.504;6.300;2023-08-17T07:14:18;28.30;63.50
12477;DHT22;6303;51.504;6.300;2023-08-17T07:16:45;28.20;63.50
12477;DHT22;6303;51.504;6.300;2023-08-17T07:19:12;28.30;63.40
12477;DHT22;6303;51.504;6.300;2023-08-17T07:21:39;28.30;63.40
12477;DHT22;6303;51.504;6.300;2023-08-17T07:24:12;28.30;63.30
12477;DHT22;6303;51.504;6.300;2023-08-17T07:26:41;28.20;63.30
12477;DHT22;6303;51.504;6.300;2023-08-17T07:29:08;28.20;63.40
12477;DHT22;6303;51.504;6.300;2023-08-17T07:31:37;28.20;63.40
12477;DHT22;6303;51.504;6.300;2023-08-17T07:34:04;28.20;63.30
12477;DHT22;6303;51.504;6.300;2023-08-17T07:36:32;28.30;63.30
12477;DHT22;6303;51.504;6.300;2023-08-17T07:38:59;28.20;63.30
12477;DHT22;6303;51.504;6.300;2023-08-17T07:41:26;28.30;63.30
12477;DHT22;6303;51.504;6.300;2023-08-17T07:43:54;28.20;63.30
12477;DHT22;6303;51.504;6.300;2023-08-17T07:46:22;28.30;64.10
12477;DHT22;6303;51.504;6.300;2023-08-17T07:48:49;28.30;63.40
12477;DHT22;6303;51.504;6.300;2023-08-17T07:51:16;28.20;63.40
12477;DHT22;6303;51.504;6.300;2023-08-17T07:53:43;28.30;63.40
12477;DHT22;6303;51.504;6.300;2023-08-17T07:56:10;28.30;63.50
12477;DHT22;6303;51.504;6.300;2023-08-17T07:58:37;28.30;63.40
12477;DHT22;6303;51.504;6.300;2023-08-17T08:01:05;28.30;63.20
12477;DHT22;6303;51.504;6.300;2023-08-17T08:03:32;28.30;63.10
12477;DHT22;6303;51.504;6.300;2023-08-17T08:05:59;28.20;63.10
12477;DHT22;6303;51.504;6.300;2023-08-17T08:08:26;28.20;63.10
12477;DHT22;6303;51.504;6.300;2023-08-17T08:10:53;28.20;63.10
12477;DHT22;6303;51.504;6.300;2023-08-17T08:13:21;28.20;63.20
12477;DHT22;6303;51.504;6.300;2023-08-17T08:15:48;28.20;63.30
12477;DHT22;6303;51.504;6.300;2023-08-17T08:18:16;28.30;63.30
12477;DHT22;6303;51.504;6.300;2023-08-17T08:20:43;28.20;63.30
12477;DHT22;6303;51.504;6.300;2023-08-17T08:23:10;28.20;63.10
12477;DHT22;6303;51.504;6.300;2023-08-17T08:25:38;28.20;63.00
12477;DHT22;6303;51.504;6.300;2023-08-17T08:28:05;28.20;62.80
12477;DHT22;6303;51.504;6.300;2023-08-17T08:30:32;28.20;62.90
12477;DHT22;6303;51.504;6.300;2023-08-17T08:32:59;28.20;62.90
12477;DHT22;6303;51.504;6.300;2023-08-17T08:35:28;28.20;62.90
12477;DHT22;6303;51.504;6.300;2023-08-17T08:37:55;28.20;62.90
12477;DHT22;6303;51.504;6.300;2023-08-17T08:40:27;28.20;63.10
12477;DHT22;6303;51.504;6.300;2023-08-17T08:42:55;28.20;63.00
12477;DHT22;6303;51.504;6.300;2023-08-17T08:45:23;28.20;63.00
12477;DHT22;6303;51.504;6.300;2023-08-17T08:47:51;28.20;63.10
12477;DHT22;6303;51.504;6.300;2023-08-17T08:50:20;28.20;63.00
12477;DHT22;6303;51.504;6.300;2023-08-17T08:52:58;28.20;63.10
12477;DHT22;6303;51.504;6.300;2023-08-17T08:55:29;28.20;63.20
12477;DHT22;6303;51.504;6.300;2023-08-17T08:57:56;28.20;63.20
12477;DHT22;6303;51.504;6.300;2023-08-17T09:00:25;28.20;63.20
12477;DHT22;6303;51.504;6.300;2023-08-17T09:02:53;28.20;63.30
12477;DHT22;6303;51.504;6.300;2023-08-17T09:05:21;28.20;63.40
12477;DHT22;6303;51.504;6.300;2023-08-17T09:07:49;28.20;63.40
12477;DHT22;6303;51.504;6.300;2023-08-17T09:10:17;28.20;63.40
12477;DHT22;6303;51.504;6.300;2023-08-17T09:12:46;28.20;63.40
12477;DHT22;6303;51.504;6.300;2023-08-17T09:15:13;28.20;63.40
12477;DHT22;6303;51.504;6.300;2023-08-17T09:17:40;28.30;63.40
12477;DHT22;6303;51.504;6.300;2023-08-17T09:20:09;28.30;63.40
12477;DHT22;6303;51.504;6.300;2023-08-17T09:22:37;28.30;63.40
12477;DHT22;6303;51.504;6.300;2023-08-17T09:25:06;28.20;63.40
12477;DHT22;6303;51.504;6.300;2023-08-17T09:27:35;28.30;63.50
12477;DHT22;6303;51.504;6.300;2023-08-17T09:30:03;28.30;63.50
12477;DHT22;6303;51.504;6.300;2023-08-17T09:32:32;28.30;63.50
12477;DHT22;6303;51.504;6.300;2023-08-17T09:35:01;28.30;63.60
12477;DHT22;6303;51.504;6.300;2023-08-17T09:37:29;28.20;63.50
12477;DHT22;6303;51.504;6.300;2023-08-17T09:39:56;28.30;63.60
12477;DHT22;6303;51.504;6.300;2023-08-17T09:42:23;28.30;63.50
12477;DHT22;6303;51.504;6.300;2023-08-17T09:44:53;28.30;63.60
12477;DHT22;6303;51.504;6.300;2023-08-17T09:47:22;28.30;63.80
12477;DHT22;6303;51.504;6.300;2023-08-17T09:49:49;28.30;63.60
12477;DHT22;6303;51.504;6.300;2023-08-17T09:52:18;28.30;63.70
12477;DHT22;6303;51.504;6.300;2023-08-17T09:54:46;28.30;63.90
12477;DHT22;6303;51.504;6.300;2023-08-17T09:57:13;29.30;64.60
12477;DHT22;6303;51.504;6.300;2023-08-17T09:59:41;28.30;63.70
12477;DHT22;6303;51.504;6.300;2023-08-17T10:02:17;28.30;63.60
12477;DHT22;6303;51.504;6.300;2023-08-17T10:04:50;28.30;63.60
12477;DHT22;6303;51.504;6.300;2023-08-17T10:07:19;28.30;63.70
12477;DHT22;6303;51.504;6.300;2023-08-17T10:09:53;28.30;63.80
12477;DHT22;6303;51.504;6.300;2023-08-17T10:12:25;28.30;63.80
12477;DHT22;6303;51.504;6.300;2023-08-17T10:14:55;28.30;63.70
12477;DHT22;6303;51.504;6.300;2023-08-17T10:17:29;28.30;63.80
12477;DHT22;6303;51.504;6.300;2023-08-17T10:19:58;28.30;63.80
12477;DHT22;6303;51.504;6.300;2023-08-17T10:22:29;28.30;63.80
12477;DHT22;6303;51.504;6.300;2023-08-17T10:24:58;28.30;63.70
12477;DHT22;6303;51.504;6.300;2023-08-17T10:27:27;28.30;63.80
12477;DHT22;6303;51.504;6.300;2023-08-17T10:29:54;28.30;63.70
12477;DHT22;6303;51.504;6.300;2023-08-17T10:32:23;28.30;63.70
12477;DHT22;6303;51.504;6.300;2023-08-17T10:34:53;28.30;63.80
12477;DHT22;6303;51.504;6.300;2023-08-17T10:37:20;28.30;63.80
12477;DHT22;6303;51.504;6.300;2023-08-17T10:39:50;28.30;63.80
12477;DHT22;6303;51.504;6.300;2023-08-17T10:42:30;28.30;63.80
12477;DHT22;6303;51.504;6.300;2023-08-17T10:44:58;28.30;63.80
12477;DHT22;6303;51.504;6.300;2023-08-17T10:47:29;28.40;63.90
12477;DHT22;6303;51.504;6.300;2023-08-17T10:50:01;28.30;63.70
12477;DHT22;6303;51.504;6.300;2023-08-17T10:52:31;28.30;63.70
12477;DHT22;6303;51.504;6.300;2023-08-17T10:55:00;29.20;64.50
12477;DHT22;6303;51.504;6.300;2023-08-17T10:57:32;28.40;64.00
12477;DHT22;6303;51.504;6.300;2023-08-17T11:00:16;28.30;63.90
12477;DHT22;6303;51.504;6.300;2023-08-17T11:02:50;28.40;63.90
12477;DHT22;6303;51.504;6.300;2023-08-17T11:05:44;28.30;63.90
12477;DHT22;6303;51.504;6.300;2023-08-17T11:08:20;28.30;63.90
12477;DHT22;6303;51.504;6.300;2023-08-17T11:10:48;28.30;63.90
12477;DHT22;6303;51.504;6.300;2023-08-17T11:13:23;28.30;63.90
12477;DHT22;6303;51.504;6.300;2023-08-17T11:15:51;28.30;63.90
12477;DHT22;6303;51.504;6.300;2023-08-17T11:18:18;28.40;63.90
12477;DHT22;6303;51.504;6.300;2023-08-17T11:20:46;28.40;63.90
12477;DHT22;6303;51.504;6.300;2023-08-17T11:23:14;28.40;64.00
12477;DHT22;6303;51.504;6.300;2023-08-17T11:25:41;28.40;64.00
12477;DHT22;6303;51.504;6.300;2023-08-17T11:28:09;28.30;63.90
12477;DHT22;6303;51.504;6.300;2023-08-17T11:30:36;28.30;63.90
12477;DHT22;6303;51.504;6.300;2023-08-17T11:33:05;28.40;64.00
12477;DHT22;6303;51.504;6.300;2023-08-17T11:35:32;28.40;64.00
12477;DHT22;6303;51.504;6.300;2023-08-17T11:38:01;28.40;63.90
12477;DHT22;6303;51.504;6.300;2023-08-17T11:40:29;28.40;63.90
12477;DHT22;6303;51.504;6.300;2023-08-17T11:42:56;28.40;63.90
12477;DHT22;6303;51.504;6.300;2023-08-17T11:45:23;28.40;63.90
12477;DHT22;6303;51.504;6.300;2023-08-17T11:47:51;28.40;63.90
12477;DHT22;6303;51.504;6.300;2023-08-17T11:50:19;28.40;63.90
12477;DHT22;6303;51.504;6.300;2023-08-17T11:52:46;28.40;64.00
12477;DHT22;6303;51.504;6.300;2023-08-17T11:55:16;28.40;64.10
12477;DHT22;6303;51.504;6.300;2023-08-17T11:57:45;28.40;64.10
12477;DHT22;6303;51.504;6.300;2023-08-17T12:00:18;28.40;64.10
12477;DHT22;6303;51.504;6.300;2023-08-17T12:02:49;28.40;64.10
12477;DHT22;6303;51.504;6.300;2023-08-17T12:05:19;28.40;64.10
12477;DHT22;6303;51.504;6.300;2023-08-17T12:07:49;28.40;64.20
12477;DHT22;6303;51.504;6.300;2023-08-17T12:10:18;28.40;64.10
12477;DHT22;6303;51.504;6.300;2023-08-17T12:12:47;28.40;64.10
12477;DHT22;6303;51.504;6.300;2023-08-17T12:15:15;29.80;65.10
12477;DHT22;6303;51.504;6.300;2023-08-17T12:17:45;28.40;64.00
12477;DHT22;6303;51.504;6.300;2023-08-17T12:20:16;28.40;64.00
12477;DHT22;6303;51.504;6.300;2023-08-17T12:22:44;28.40;64.10
12477;DHT22;6303;51.504;6.300;2023-08-17T12:25:11;28.40;64.10
12477;DHT22;6303;51.504;6.300;2023-08-17T12:27:40;28.40;64.10
12477;DHT22;6303;51.504;6.300;2023-08-17T12:30:12;28.40;64.10
12477;DHT22;6303;51.504;6.300;2023-08-17T12:32:40;28.40;64.10
12477;DHT22;6303;51.504;6.300;2023-08-17T12:35:07;28.40;64.10
12477;DHT22;6303;51.504;6.300;2023-08-17T12:37:34;28.40;64.20
12477;DHT22;6303;51.504;6.300;2023-08-17T12:40:02;28.40;64.20
12477;DHT22;6303;51.504;6.300;2023-08-17T12:42:29;28.40;64.20
12477;DHT22;6303;51.504;6.300;2023-08-17T12:44:58;28.40;64.30
12477;DHT22;6303;51.504;6.300;2023-08-17T12:47:25;28.40;64.30
12477;DHT22;6303;51.504;6.300;2023-08-17T12:49:52;28.40;64.30
12477;DHT22;6303;51.504;6.300;2023-08-17T12:52:19;28.40;64.30
12477;DHT22;6303;51.504;6.300;2023-08-17T12:54:46;28.40;64.30
12477;DHT22;6303;51.504;6.300;2023-08-17T12:57:13;28.40;64.30
12477;DHT22;6303;51.504;6.300;2023-08-17T12:59:40;28.40;64.30
12477;DHT22;6303;51.504;6.300;2023-08-17T13:02:08;28.40;64.30
12477;DHT22;6303;51.504;6.300;2023-08-17T13:04:35;28.40;64.40
12477;DHT22;6303;51.504;6.300;2023-08-17T13:07:03;28.40;64.40
12477;DHT22;6303;51.504;6.300;2023-08-17T13:09:30;28.40;64.40
12477;DHT22;6303;51.504;6.300;2023-08-17T13:11:57;28.40;64.50
12477;DHT22;6303;51.504;6.300;2023-08-17T13:14:25;28.40;64.50
12477;DHT22;6303;51.504;6.300;2023-08-17T13:16:52;28.40;64.50
12477;DHT22;6303;51.504;6.300;2023-08-17T13:19:21;28.40;64.50
12477;DHT22;6303;51.504;6.300;2023-08-17T13:21:48;28.40;64.60
12477;DHT22;6303;51.504;6.300;2023-08-17T13:24:15;28.40;64.60
12477;DHT22;6303;51.504;6.300;2023-08-17T13:26:42;28.40;64.60
12477;DHT22;6303;51.504;6.300;2023-08-17T13:29:09;28.40;64.60
12477;DHT22;6303;51.504;6.300;2023-08-17T13:31:36;28.40;64.60
12477;DHT22;6303;51.504;6.300;2023-08-17T13:34:03;28.40;64.60
12477;DHT22;6303;51.504;6.300;2023-08-17T13:36:31;28.40;64.60
12477;DHT22;6303;51.504;6.300;2023-08-17T13:38:58;28.40;64.60
12477;DHT22;6303;51.504;6.300;2023-08-17T13:41:25;28.30;64.60
12477;DHT22;6303;51.504;6.300;2023-08-17T13:43:52;28.30;64.60
12477;DHT22;6303;51.504;6.300;2023-08-17T13:46:19;28.30;64.70
12477;DHT22;6303;51.504;6.300;2023-08-17T13:48:46;28.30;64.70
12477;DHT22;6303;51.504;6.300;2023-08-17T13:51:13;28.30;64.70
12477;DHT22;6303;51.504;6.300;2023-08-17T13:53:41;28.40;65.00
12477;DHT22;6303;51.504;6.300;2023-08-17T13:56:08;28.30;65.00
12477;DHT22;6303;51.504;6.300;2023-08-17T13:58:35;28.40;64.90
12477;DHT22;6303;51.504;6.300;2023-08-17T14:01:02;28.40;64.80
12477;DHT22;6303;51.504;6.300;2023-08-17T14:03:30;28.40;64.80
12477;DHT22;6303;51.504;6.300;2023-08-17T14:05:57;28.30;64.70
12477;DHT22;6303;51.504;6.300;2023-08-17T14:08:24;28.40;64.80
12477;DHT22;6303;51.504;6.300;2023-08-17T14:10:52;28.40;64.80
12477;DHT22;6303;51.504;6.300;2023-08-17T14:13:19;28.40;64.80
12477;DHT22;6303;51.504;6.300;2023-08-17T14:15:46;28.40;64.70
12477;DHT22;6303;51.504;6.300;2023-08-17T14:18:14;28.40;64.70
12477;DHT22;6303;51.504;6.300;2023-08-17T14:20:41;28.40;64.70
12477;DHT22;6303;51.504;6.300;2023-08-17T14:23:08;28.40;64.90
12477;DHT22;6303;51.504;6.300;2023-08-17T14:25:35;28.40;65.00
12477;DHT22;6303;51.504;6.300;2023-08-17T14:28:06;28.40;65.00
12477;DHT22;6303;51.504;6.300;2023-08-17T14:30:33;28.40;64.80
12477;DHT22;6303;51.504;6.300;2023-08-17T14:33:00;28.40;64.80
12477;DHT22;6303;51.504;6.300;2023-08-17T14:35:27;28.80;65.10
12477;DHT22;6303;51.504;6.300;2023-08-17T14:37:55;28.40;64.80
12477;DHT22;6303;51.504;6.300;2023-08-17T14:40:23;28.40;64.80
12477;DHT22;6303;51.504;6.300;2023-08-17T14:42:50;28.40;64.80
12477;DHT22;6303;51.504;6.300;2023-08-17T14:45:19;28.40;64.90
12477;DHT22;6303;51.504;6.300;2023-08-17T14:47:46;28.40;64.90
12477;DHT22;6303;51.504;6.300;2023-08-17T14:50:13;28.40;65.10
12477;DHT22;6303;51.504;6.300;2023-08-17T14:52:40;28.40;65.10
12477;DHT22;6303;51.504;6.300;2023-08-17T14:55:08;28.40;65.10
12477;DHT22;6303;51.504;6.300;2023-08-17T14:57:36;28.40;65.10
12477;DHT22;6303;51.504;6.300;2023-08-17T15:00:04;28.40;65.10
12477;DHT22;6303;51.504;6.300;2023-08-17T15:02:33;28.40;65.10
12477;DHT22;6303;51.504;6.300;2023-08-17T15:05:00;28.40;65.20
12477;DHT22;6303;51.504;6.300;2023-08-17T15:07:27;28.40;65.30
12477;DHT22;6303;51.504;6.300;2023-08-17T15:09:54;28.40;65.30
12477;DHT22;6303;51.504;6.300;2023-08-17T15:12:21;28.40;65.30
12477;DHT22;6303;51.504;6.300;2023-08-17T15:14:48;28.40;65.30
12477;DHT22;6303;51.504;6.300;2023-08-17T15:17:15;28.30;65.20
12477;DHT22;6303;51.504;6.300;2023-08-17T15:19:43;28.30;65.30
12477;DHT22;6303;51.504;6.300;2023-08-17T15:22:10;28.40;65.40
12477;DHT22;6303;51.504;6.300;2023-08-17T15:24:37;28.40;65.40
12477;DHT22;6303;51.504;6.300;2023-08-17T15:27:05;28.30;65.40
12477;DHT22;6303;51.504;6.300;2023-08-17T15:29:32;28.40;65.50
12477;DHT22;6303;51.504;6.300;2023-08-17T15:31:59;28.30;65.50
12477;DHT22;6303;51.504;6.300;2023-08-17T15:34:26;28.30;65.50
12477;DHT22;6303;51.504;6.300;2023-08-17T15:36:54;28.30;65.60
12477;DHT22;6303;51.504;6.300;2023-08-17T15:39:21;28.30;65.50
12477;DHT22;6303;51.504;6.300;2023-08-17T15:41:48;28.30;65.50
12477;DHT22;6303;51.504;6.300;2023-08-17T15:44:15;28.30;65.60
12477;DHT22;6303;51.504;6.300;2023-08-17T15:46:42;28.30;65.50
12477;DHT22;6303;51.504;6.300;2023-08-17T15:49:10;28.30;65.60